createdAt,value
2023-04-10T00:01:16.915Z,7.23
2023-04-10T00:02:49.391Z,8.10
2023-04-10T00:04:22.195Z,7.53
2023-04-10T00:05:54.613Z,7.30
2023-04-10T00:07:26.626Z,7.80
2023-04-10T00:08:58.794Z,7.77
2023-04-10T00:10:32.465Z,7.80
2023-04-10T00:12:04.686Z,7.77
2023-04-10T00:13:36.322Z,7.30
2023-04-10T00:15:08.706Z,7.40
2023-04-10T00:16:44.059Z,7.30
2023-04-10T00:18:15.794Z,7.77
2023-04-10T00:19:47.428Z,7.40
2023-04-10T00:21:19.106Z,7.10
2023-04-10T00:22:54.437Z,6.90
2023-04-10T00:24:26.200Z,8.00
2023-04-10T00:25:57.949Z,8.20
2023-04-10T00:27:29.844Z,7.80
2023-04-10T00:29:02.249Z,7.80
2023-04-10T00:30:34.110Z,7.97
2023-04-10T00:32:05.808Z,7.80
2023-04-10T00:33:37.559Z,7.47
2023-04-10T00:35:12.999Z,7.70
2023-04-10T00:36:47.261Z,7.23
2023-04-10T00:38:19.716Z,7.80
2023-04-10T00:39:51.472Z,7.40
2023-04-10T00:41:23.831Z,7.80
2023-04-10T00:42:55.627Z,6.80
2023-04-10T00:44:27.328Z,7.40
2023-04-10T00:45:59.423Z,8.00
2023-04-10T00:47:32.016Z,7.27
2023-04-10T00:49:04.669Z,7.73
2023-04-10T00:50:37.815Z,7.77
2023-04-10T00:52:09.847Z,6.60
2023-04-10T00:53:43.221Z,7.10
2023-04-10T00:55:16.114Z,6.33
2023-04-10T00:56:49.329Z,6.90
2023-04-10T00:58:20.971Z,7.80
2023-04-10T00:59:53.146Z,7.20
2023-04-10T01:01:25.666Z,8.03
2023-04-10T01:03:00.727Z,8.33
2023-04-10T01:04:34.129Z,8.13
2023-04-10T01:06:27.007Z,7.63
2023-04-10T01:08:01.673Z,7.90
2023-04-10T01:09:50.272Z,7.90
2023-04-10T01:11:48.089Z,8.10
2023-04-10T01:13:46.095Z,8.17
2023-04-10T01:15:22.106Z,8.80
2023-04-10T01:17:00.498Z,8.70
2023-04-10T01:18:50.967Z,8.70
2023-04-10T01:20:24.351Z,8.77
2023-04-10T01:22:02.514Z,8.83
2023-04-10T01:23:55.357Z,8.97
2023-04-10T01:25:39.525Z,7.77
2023-04-10T01:27:15.265Z,7.77
2023-04-10T01:28:56.792Z,8.17
2023-04-10T01:30:35.207Z,8.40
2023-04-10T01:32:14.642Z,8.00
2023-04-10T01:33:52.948Z,8.40
2023-04-10T01:35:26.553Z,7.90
2023-04-10T01:37:02.513Z,7.23
2023-04-10T01:38:36.256Z,7.87
2023-04-10T01:40:11.224Z,7.63
2023-04-10T01:41:45.179Z,7.07
2023-04-10T01:43:19.521Z,8.20
2023-04-10T01:44:57.574Z,7.73
2023-04-10T01:46:30.040Z,7.37
2023-04-10T01:48:03.419Z,8.00
2023-04-10T01:49:42.710Z,7.80
2023-04-10T01:51:15.921Z,7.30
2023-04-10T01:52:52.606Z,9.10
2023-04-10T01:54:32.862Z,7.80
2023-04-10T01:56:09.035Z,8.03
2023-04-10T01:57:48.979Z,6.93
2023-04-10T01:59:21.490Z,7.60
2023-04-10T02:00:53.463Z,7.70
2023-04-10T02:02:25.987Z,8.10
2023-04-10T02:03:59.077Z,7.70
2023-04-10T02:05:46.183Z,7.20
2023-04-10T02:07:30.089Z,7.63
2023-04-10T02:09:11.032Z,8.27
2023-04-10T02:10:59.506Z,8.00
2023-04-10T02:12:38.761Z,6.73
2023-04-10T02:14:12.183Z,6.87
2023-04-10T02:15:47.706Z,7.37
2023-04-10T02:17:28.479Z,7.80
2023-04-10T02:19:02.161Z,7.63
2023-04-10T02:20:37.665Z,7.00
2023-04-10T02:22:12.668Z,7.67
2023-04-10T02:23:44.548Z,7.90
2023-04-10T02:25:16.737Z,7.70
2023-04-10T02:26:50.841Z,7.60
2023-04-10T02:28:22.870Z,7.20
2023-04-10T02:29:57.068Z,8.23
2023-04-10T02:31:29.350Z,8.00
2023-04-10T02:33:02.010Z,8.10
2023-04-10T02:34:35.763Z,8.00
2023-04-10T02:36:08.155Z,7.33
2023-04-10T02:37:39.866Z,8.10
2023-04-10T02:39:13.139Z,8.23
2023-04-10T02:41:10.667Z,7.93
2023-04-10T02:42:46.907Z,7.30
2023-04-10T02:44:36.344Z,7.20
2023-04-10T02:46:20.226Z,8.10
2023-04-10T02:47:57.427Z,8.00
2023-04-10T02:49:40.626Z,8.40
2023-04-10T02:51:48.366Z,8.33
2023-04-10T02:53:27.269Z,8.10
2023-04-10T02:55:05.605Z,8.50
2023-04-10T02:56:42.883Z,8.30
2023-04-10T02:58:18.987Z,7.43
2023-04-10T03:00:01.778Z,8.17
2023-04-10T03:01:58.287Z,7.80
2023-04-10T03:03:37.056Z,8.37
2023-04-10T03:05:14.321Z,7.43
2023-04-10T03:06:51.287Z,8.17
2023-04-10T03:08:25.673Z,7.93
2023-04-10T03:10:04.309Z,8.30
2023-04-10T03:11:39.839Z,7.67
2023-04-10T03:13:15.653Z,8.13
2023-04-10T03:14:50.811Z,7.63
2023-04-10T03:16:28.794Z,8.03
2023-04-10T03:18:06.765Z,8.40
2023-04-10T03:19:53.136Z,8.23
2023-04-10T03:21:28.865Z,7.57
2023-04-10T03:23:11.003Z,8.03
2023-04-10T03:24:50.102Z,8.00
2023-04-10T03:26:29.366Z,7.70
2023-04-10T03:28:05.491Z,8.10
2023-04-10T03:29:46.089Z,7.60
2023-04-10T03:31:21.097Z,7.80
2023-04-10T03:32:57.005Z,7.47
2023-04-10T03:34:38.625Z,7.17
2023-04-10T03:36:17.805Z,8.30
2023-04-10T03:38:08.406Z,7.60
2023-04-10T03:39:45.279Z,7.70
2023-04-10T03:41:29.556Z,7.97
2023-04-10T03:43:08.669Z,8.20
2023-04-10T03:44:56.142Z,7.10
2023-04-10T03:46:30.802Z,8.30
2023-04-10T03:48:10.686Z,8.37
2023-04-10T03:49:56.252Z,7.20
2023-04-10T03:51:32.767Z,7.40
2023-04-10T03:53:12.599Z,8.33
2023-04-10T03:55:01.755Z,7.67
2023-04-10T03:58:44.486Z,7.90
2023-04-10T04:00:24.121Z,8.40
2023-04-10T04:02:12.328Z,9.00
2023-04-10T04:03:53.643Z,8.40
2023-04-10T04:06:00.340Z,8.43
2023-04-10T04:08:04.349Z,7.90
2023-04-10T04:09:45.664Z,7.93
2023-04-10T04:11:53.789Z,8.93
2023-04-10T04:13:59.440Z,8.50
2023-04-10T04:15:58.157Z,8.57
2023-04-10T04:18:14.586Z,8.97
2023-04-10T04:19:59.664Z,8.27
2023-04-10T04:21:53.774Z,8.00
2023-04-10T04:24:02.788Z,8.97
2023-04-10T04:25:58.348Z,8.53
2023-04-10T04:27:58.740Z,8.87
2023-04-10T04:29:56.212Z,9.07
2023-04-10T04:32:07.246Z,8.53
2023-04-10T04:34:02.439Z,8.80
2023-04-10T04:36:07.373Z,8.17
2023-04-10T04:38:05.844Z,9.07
2023-04-10T04:40:14.881Z,9.10
2023-04-10T04:42:23.272Z,8.83
2023-04-10T04:43:57.291Z,8.60
2023-04-10T04:45:52.445Z,8.47
2023-04-10T04:47:47.250Z,7.70
2023-04-10T04:49:51.362Z,9.07
2023-04-10T04:51:30.503Z,8.90
2023-04-10T04:53:31.802Z,8.97
2023-04-10T04:55:44.341Z,7.87
2023-04-10T04:57:38.010Z,8.40
2023-04-10T04:59:45.276Z,9.20
2023-04-10T05:01:42.886Z,9.20
2023-04-10T05:03:52.152Z,8.97
2023-04-10T05:05:46.275Z,9.37
2023-04-10T05:07:56.823Z,9.53
2023-04-10T05:09:55.657Z,8.40
2023-04-10T05:11:55.835Z,8.97
2023-04-10T05:14:07.860Z,8.53
2023-04-10T05:16:04.055Z,9.03
2023-04-10T05:17:47.165Z,9.00
2023-04-10T05:21:54.558Z,9.50
2023-04-10T05:23:40.002Z,7.93
2023-04-10T05:25:46.647Z,8.20
2023-04-10T05:27:36.810Z,8.27
2023-04-10T05:29:26.263Z,9.20
2023-04-10T05:31:22.123Z,9.20
2023-04-10T05:33:21.258Z,9.00
2023-04-10T05:35:16.327Z,8.90
2023-04-10T05:37:13.850Z,9.13
2023-04-10T05:39:06.535Z,8.73
2023-04-10T05:41:03.294Z,8.50
2023-04-10T05:42:44.600Z,9.10
2023-04-10T05:44:28.106Z,8.47
2023-04-10T05:46:14.593Z,7.83
2023-04-10T05:48:15.326Z,8.53
2023-04-10T05:50:11.986Z,8.10
2023-04-10T05:52:08.285Z,8.40
2023-04-10T05:54:02.587Z,8.40
2023-04-10T05:56:04.137Z,9.27
2023-04-10T05:58:06.091Z,8.20
2023-04-10T06:00:20.217Z,8.57
2023-04-10T06:02:30.922Z,8.27
2023-04-10T06:04:09.168Z,8.27
2023-04-10T06:05:43.815Z,8.37
2023-04-10T06:07:29.388Z,8.20
2023-04-10T06:09:04.562Z,8.53
2023-04-10T06:10:37.829Z,8.03
2023-04-10T06:12:25.393Z,7.60
2023-04-10T06:13:58.747Z,8.53
2023-04-10T06:16:03.470Z,8.30
2023-04-10T06:17:58.839Z,8.20
2023-04-10T06:19:44.122Z,8.00
2023-04-10T06:21:22.226Z,8.23
2023-04-10T06:23:07.007Z,8.13
2023-04-10T06:24:40.740Z,7.73
2023-04-10T06:26:23.221Z,8.07
2023-04-10T06:28:09.385Z,7.97
2023-04-10T06:29:48.556Z,8.00
2023-04-10T06:31:28.129Z,8.10
2023-04-10T06:33:06.265Z,7.70
2023-04-10T06:34:44.070Z,7.80
2023-04-10T06:36:18.111Z,7.33
2023-04-10T06:38:01.322Z,7.60
2023-04-10T06:39:34.861Z,7.03
2023-04-10T06:41:07.182Z,7.77
2023-04-10T06:42:44.841Z,7.90
2023-04-10T06:44:36.998Z,7.47
2023-04-10T06:46:10.694Z,7.67
2023-04-10T06:47:43.266Z,7.20
2023-04-10T06:49:17.524Z,7.57
2023-04-10T06:50:50.715Z,7.73
2023-04-10T06:52:24.863Z,7.47
2023-04-10T06:54:10.097Z,7.00
2023-04-10T06:55:46.426Z,7.10
2023-04-10T06:57:25.047Z,7.80
2023-04-10T06:59:05.549Z,8.03
2023-04-10T07:00:40.897Z,8.13
2023-04-10T07:02:32.836Z,7.30
2023-04-10T07:04:09.904Z,7.07
2023-04-10T07:05:45.881Z,7.03
2023-04-10T07:07:22.723Z,6.97
2023-04-10T07:09:02.562Z,7.30
2023-04-10T07:10:38.522Z,7.30
2023-04-10T07:12:13.581Z,7.90
2023-04-10T07:13:50.966Z,7.57
2023-04-10T07:17:20.002Z,7.07
2023-04-10T07:18:58.557Z,7.03
2023-04-10T07:20:34.067Z,7.33
2023-04-10T07:22:06.867Z,7.20
2023-04-10T07:23:39.009Z,6.77
2023-04-10T07:25:20.737Z,6.83
2023-04-10T07:26:53.815Z,6.87
2023-04-10T07:28:47.886Z,7.20
2023-04-10T07:30:25.590Z,6.77
2023-04-10T07:31:59.281Z,6.97
2023-04-10T07:33:32.272Z,7.40
2023-04-10T07:35:06.343Z,7.13
2023-04-10T07:36:47.914Z,7.27
2023-04-10T07:38:21.325Z,6.80
2023-04-10T07:39:58.413Z,7.30
2023-04-10T07:41:31.835Z,6.83
2023-04-10T07:43:13.012Z,7.10
2023-04-10T07:44:47.001Z,7.07
2023-04-10T07:46:21.146Z,7.10
2023-04-10T07:47:53.818Z,7.07
2023-04-10T07:49:32.102Z,6.90
2023-04-10T07:51:13.135Z,6.10
2023-04-10T07:53:00.487Z,6.60
2023-04-10T07:54:37.195Z,6.67
2023-04-10T07:56:18.026Z,7.33
2023-04-10T07:57:57.171Z,6.40
2023-04-10T07:59:31.199Z,6.37
2023-04-10T08:01:10.228Z,6.90
2023-04-10T08:02:44.127Z,6.33
2023-04-10T08:04:23.829Z,6.70
2023-04-10T08:06:05.993Z,5.80
2023-04-10T08:07:49.098Z,6.07
2023-04-10T08:09:30.337Z,6.03
2023-04-10T08:11:37.359Z,5.90
2023-04-10T08:13:16.631Z,6.47
2023-04-10T08:15:16.206Z,5.80
2023-04-10T08:16:49.938Z,6.07
2023-04-10T08:18:25.603Z,5.93
2023-04-10T08:20:08.806Z,6.50
2023-04-10T08:21:53.179Z,6.40
2023-04-10T08:23:37.515Z,6.03
2023-04-10T08:25:10.920Z,5.90
2023-04-10T08:26:51.548Z,6.17
2023-04-10T08:28:35.360Z,5.97
2023-04-10T08:30:14.404Z,5.73
2023-04-10T08:32:10.459Z,6.20
2023-04-10T08:33:49.305Z,6.10
2023-04-10T08:35:22.608Z,5.77
2023-04-10T08:37:14.104Z,5.97
2023-04-10T08:38:50.841Z,6.17
2023-04-10T08:40:28.138Z,5.70
2023-04-10T08:42:08.705Z,5.40
2023-04-10T08:43:45.948Z,5.70
2023-04-10T08:45:21.862Z,5.40
2023-04-10T08:47:00.733Z,5.63
2023-04-10T08:48:45.701Z,5.20
2023-04-10T08:50:22.053Z,5.40
2023-04-10T08:52:06.560Z,5.10
2023-04-10T08:53:48.548Z,5.30
2023-04-10T08:55:22.608Z,5.43
2023-04-10T08:56:59.519Z,5.47
2023-04-10T08:58:36.695Z,5.23
2023-04-10T09:00:23.342Z,4.77
2023-04-10T09:01:57.568Z,4.87
2023-04-10T09:03:33.935Z,5.00
2023-04-10T09:05:12.167Z,4.90
2023-04-10T09:06:58.004Z,4.23
2023-04-10T09:08:34.276Z,4.40
2023-04-10T09:10:11.384Z,4.60
2023-04-10T09:11:56.558Z,5.17
2023-04-10T09:13:38.281Z,4.43
2023-04-10T09:17:26.166Z,4.13
2023-04-10T09:19:11.774Z,4.67
2023-04-10T09:20:54.756Z,4.37
2023-04-10T09:22:35.691Z,4.13
2023-04-10T09:24:13.431Z,4.43
2023-04-10T09:25:51.061Z,4.27
2023-04-10T09:27:37.756Z,4.20
2023-04-10T09:29:13.512Z,4.43
2023-04-10T09:30:48.228Z,4.50
2023-04-10T09:32:38.997Z,4.60
2023-04-10T09:34:18.023Z,4.43
2023-04-10T09:35:52.848Z,3.87
2023-04-10T09:37:37.586Z,3.80
2023-04-10T09:39:17.095Z,4.40
2023-04-10T09:41:00.702Z,4.30
2023-04-10T09:42:43.518Z,3.93
2023-04-10T09:44:41.844Z,4.10
2023-04-10T09:46:44.464Z,3.97
2023-04-10T09:48:29.126Z,3.97
2023-04-10T09:50:07.058Z,3.90
2023-04-10T09:51:53.504Z,4.07
2023-04-10T09:53:33.784Z,3.90
2023-04-10T09:55:13.507Z,4.30
2023-04-10T09:57:04.091Z,5.03
2023-04-10T09:58:45.924Z,4.40
2023-04-10T10:00:19.045Z,4.10
2023-04-10T10:01:50.959Z,4.20
2023-04-10T10:03:23.013Z,3.77
2023-04-10T10:04:55.579Z,3.67
2023-04-10T10:06:28.438Z,3.53
2023-04-10T10:08:00.309Z,4.00
2023-04-10T10:09:33.460Z,3.70
2023-04-10T10:11:09.989Z,3.50
2023-04-10T10:12:50.527Z,3.23
2023-04-10T10:14:24.845Z,3.60
2023-04-10T10:16:02.562Z,3.63
2023-04-10T10:18:07.732Z,3.70
2023-04-10T10:19:57.110Z,3.80
2023-04-10T10:21:30.064Z,3.70
2023-04-10T10:23:06.680Z,3.30
2023-04-10T10:24:39.975Z,2.80
2023-04-10T10:26:13.192Z,2.97
2023-04-10T10:27:46.312Z,3.80
2023-04-10T10:29:19.584Z,3.23
2023-04-10T10:30:52.565Z,3.30
2023-04-10T10:32:25.118Z,3.43
2023-04-10T10:33:57.247Z,3.10
2023-04-10T10:35:31.907Z,3.57
2023-04-10T10:37:05.785Z,3.27
2023-04-10T10:38:41.700Z,3.57
2023-04-10T10:40:22.706Z,3.40
2023-04-10T10:42:17.220Z,3.40
2023-04-10T10:43:48.864Z,3.20
2023-04-10T10:45:42.759Z,3.13
2023-04-10T10:47:24.186Z,3.63
2023-04-10T10:48:57.831Z,3.10
2023-04-10T10:50:53.334Z,2.97
2023-04-10T10:52:57.395Z,3.20
2023-04-10T10:54:42.241Z,3.80
2023-04-10T10:56:20.223Z,3.10
2023-04-10T10:57:56.067Z,2.67
2023-04-10T10:59:46.628Z,3.10
2023-04-10T11:01:22.236Z,3.27
2023-04-10T11:03:10.432Z,3.30
2023-04-10T11:04:47.612Z,2.77
2023-04-10T11:06:21.020Z,3.20
2023-04-10T11:07:58.449Z,3.20
2023-04-10T11:09:48.520Z,3.20
2023-04-10T11:11:24.717Z,3.40
2023-04-10T11:13:19.795Z,3.20
2023-04-10T11:15:00.256Z,3.70
2023-04-10T11:16:35.840Z,3.57
2023-04-10T11:18:07.687Z,3.17
2023-04-10T11:20:01.084Z,3.20
2023-04-10T11:21:33.024Z,3.20
2023-04-10T11:23:12.351Z,3.00
2023-04-10T11:24:52.562Z,3.37
2023-04-10T11:26:45.636Z,3.40
2023-04-10T11:28:35.866Z,2.80
2023-04-10T11:30:36.199Z,3.27
2023-04-10T11:32:08.139Z,3.60
2023-04-10T11:33:40.709Z,2.83
2023-04-10T11:35:12.397Z,2.90
2023-04-10T11:36:44.851Z,2.80
2023-04-10T11:38:18.197Z,2.80
2023-04-10T11:40:03.745Z,2.73
2023-04-10T11:41:37.293Z,3.23
2023-04-10T11:43:13.983Z,2.77
2023-04-10T11:44:46.650Z,2.83
2023-04-10T11:46:20.731Z,2.80
2023-04-10T11:47:53.837Z,3.33
2023-04-10T11:49:30.129Z,3.03
2023-04-10T11:51:09.830Z,2.87
2023-04-10T11:52:41.583Z,2.97
2023-04-10T11:54:16.218Z,2.90
2023-04-10T11:55:48.036Z,3.17
2023-04-10T11:57:19.740Z,2.93
2023-04-10T11:58:54.430Z,2.70
2023-04-10T12:00:26.733Z,2.90
2023-04-10T12:02:15.275Z,3.17
2023-04-10T12:03:47.277Z,2.83
2023-04-10T12:05:19.190Z,2.90
2023-04-10T12:06:52.833Z,2.53
2023-04-10T12:08:34.838Z,2.80
2023-04-10T12:10:07.402Z,2.83
2023-04-10T12:11:39.471Z,2.90
2023-04-10T12:13:25.099Z,2.57
2023-04-10T12:14:56.786Z,2.30
2023-04-10T12:16:28.689Z,2.60
2023-04-10T12:18:00.794Z,2.77
2023-04-10T12:19:33.747Z,2.73
2023-04-10T12:21:08.177Z,2.30
2023-04-10T12:22:40.494Z,2.57
2023-04-10T12:24:12.617Z,2.60
2023-04-10T12:25:44.298Z,2.60
2023-04-10T12:27:23.407Z,2.40
2023-04-10T12:28:59.308Z,2.20
2023-04-10T12:30:31.013Z,2.73
2023-04-10T12:32:10.251Z,2.40
2023-04-10T12:33:47.867Z,2.37
2023-04-10T12:35:19.678Z,2.43
2023-04-10T12:36:54.188Z,2.43
2023-04-10T12:38:43.025Z,2.13
2023-04-10T12:40:15.434Z,2.40
2023-04-10T12:41:47.148Z,2.67
2023-04-10T12:43:41.875Z,2.30
2023-04-10T12:45:14.497Z,2.10
2023-04-10T12:46:46.273Z,2.17
2023-04-10T12:48:24.240Z,2.23
2023-04-10T12:50:13.951Z,2.40
2023-04-10T12:51:45.891Z,2.20
2023-04-10T12:53:18.025Z,2.30
2023-04-10T12:54:49.682Z,2.03
2023-04-10T12:56:21.402Z,2.10
2023-04-10T12:57:54.742Z,2.30
2023-04-10T12:59:26.849Z,1.90
2023-04-10T13:01:11.689Z,2.23
2023-04-10T13:02:43.973Z,2.13
2023-04-10T13:04:16.632Z,2.10
2023-04-10T13:05:48.429Z,2.33
2023-04-10T13:07:20.417Z,2.00
2023-04-10T13:08:52.944Z,2.30
2023-04-10T13:10:24.859Z,2.10
2023-04-10T13:11:57.605Z,1.80
2023-04-10T13:13:31.328Z,2.40
2023-04-10T13:15:03.153Z,1.93
2023-04-10T13:16:35.530Z,2.00
2023-04-10T13:18:08.092Z,2.20
2023-04-10T13:19:40.081Z,1.70
2023-04-10T13:21:11.757Z,2.23
2023-04-10T13:22:45.285Z,2.00
2023-04-10T13:24:17.065Z,2.20
2023-04-10T13:25:48.783Z,1.97
2023-04-10T13:27:20.522Z,1.93
2023-04-10T13:28:52.653Z,1.90
2023-04-10T13:30:24.767Z,1.70
2023-04-10T13:31:56.655Z,1.90
2023-04-10T13:33:28.364Z,3.00
2023-04-10T13:35:00.162Z,2.20
2023-04-10T13:36:31.947Z,1.80
2023-04-10T13:38:03.812Z,2.20
2023-04-10T13:39:35.644Z,1.80
2023-04-10T13:41:07.543Z,2.10
2023-04-10T13:42:41.270Z,2.20
2023-04-10T13:44:14.182Z,1.93
2023-04-10T13:45:45.912Z,2.27
2023-04-10T13:47:17.609Z,2.03
2023-04-10T13:48:49.273Z,2.10
2023-04-10T13:50:21.006Z,2.40
2023-04-10T13:51:52.679Z,2.10
2023-04-10T13:53:24.405Z,2.23
2023-04-10T13:54:56.166Z,2.40
2023-04-10T13:56:27.823Z,1.93
2023-04-10T13:57:59.522Z,2.30
2023-04-10T13:59:31.291Z,1.90
2023-04-10T14:01:03.405Z,2.10
2023-04-10T14:02:35.379Z,2.70
2023-04-10T14:04:07.456Z,3.57
2023-04-10T14:05:39.478Z,3.37
2023-04-10T14:07:11.797Z,3.60
2023-04-10T14:08:43.490Z,3.67
2023-04-10T14:10:15.230Z,3.63
2023-04-10T14:11:46.883Z,2.77
2023-04-10T14:13:19.016Z,2.80
2023-04-10T14:14:51.216Z,2.37
2023-04-10T14:16:23.042Z,2.20
2023-04-10T14:17:54.809Z,2.40
2023-04-10T14:19:26.624Z,2.30
2023-04-10T14:20:58.351Z,2.27
2023-04-10T14:22:31.634Z,2.30
2023-04-10T14:24:03.456Z,2.33
2023-04-10T14:25:35.150Z,2.27
2023-04-10T14:27:06.889Z,2.00
2023-04-10T14:28:38.611Z,2.20
2023-04-10T14:30:10.733Z,2.10
2023-04-10T14:31:56.612Z,2.10
2023-04-10T14:33:29.551Z,3.90
2023-04-10T14:35:01.270Z,2.47
2023-04-10T14:36:33.244Z,2.17
2023-04-10T14:38:04.955Z,2.10
2023-04-10T14:39:36.601Z,2.33
2023-04-10T14:41:08.392Z,2.00
2023-04-10T14:42:40.117Z,2.40
2023-04-10T14:44:11.782Z,2.00
2023-04-10T14:45:43.534Z,2.10
2023-04-10T14:47:15.324Z,1.87
2023-04-10T14:48:47.005Z,2.07
2023-04-10T14:50:18.891Z,2.00
2023-04-10T14:51:50.627Z,2.10
2023-04-10T14:53:23.057Z,2.03
2023-04-10T14:54:57.364Z,1.93
2023-04-10T14:56:29.183Z,2.10
2023-04-10T14:58:00.915Z,2.43
2023-04-10T14:59:32.816Z,2.37
2023-04-10T15:01:08.498Z,2.10
2023-04-10T15:02:40.653Z,2.27
2023-04-10T15:04:15.902Z,2.70
2023-04-10T15:05:47.632Z,3.00
2023-04-10T15:07:19.322Z,3.57
2023-04-10T15:08:50.962Z,3.23
2023-04-10T15:10:22.782Z,3.20
2023-04-10T15:11:56.867Z,3.07
2023-04-10T15:13:28.566Z,3.33
2023-04-10T15:15:00.819Z,3.47
2023-04-10T15:16:32.499Z,3.20
2023-04-10T15:18:04.431Z,3.40
2023-04-10T15:19:36.098Z,2.73
2023-04-10T15:21:07.882Z,2.50
2023-04-10T15:22:42.399Z,2.40
2023-04-10T15:24:14.089Z,2.80
2023-04-10T15:25:45.940Z,2.30
2023-04-10T15:27:20.085Z,2.83
2023-04-10T15:28:52.601Z,2.37
2023-04-10T15:30:24.472Z,2.30
2023-04-10T15:31:59.277Z,2.90
2023-04-10T15:33:31.054Z,1.90
2023-04-10T15:35:04.235Z,2.07
2023-04-10T15:36:41.987Z,2.30
2023-04-10T15:38:15.202Z,2.20
2023-04-10T15:39:46.930Z,2.40
2023-04-10T15:41:19.027Z,1.87
2023-04-10T15:42:50.708Z,2.10
2023-04-10T15:44:22.496Z,1.87
2023-04-10T15:45:54.281Z,2.10
2023-04-10T15:47:26.954Z,1.90
2023-04-10T15:48:59.587Z,1.97
2023-04-10T15:50:31.717Z,1.70
2023-04-10T15:52:03.539Z,2.00
2023-04-10T15:53:35.605Z,2.23
2023-04-10T15:55:07.713Z,2.13
2023-04-10T15:56:40.668Z,2.13
2023-04-10T15:58:12.463Z,1.87
2023-04-10T15:59:44.111Z,2.00
2023-04-10T16:01:16.044Z,2.20
2023-04-10T16:02:47.950Z,1.77
2023-04-10T16:04:19.795Z,2.00
2023-04-10T16:05:51.700Z,1.87
2023-04-10T16:07:23.403Z,1.90
2023-04-10T16:08:55.098Z,1.90
2023-04-10T16:10:26.847Z,1.90
2023-04-10T16:11:58.710Z,1.87
2023-04-10T16:13:30.575Z,1.80
2023-04-10T16:15:04.244Z,2.00
2023-04-10T16:16:36.135Z,1.87
2023-04-10T16:18:07.980Z,2.00
2023-04-10T16:19:39.646Z,1.97
2023-04-10T16:21:14.116Z,1.90
2023-04-10T16:22:45.815Z,2.10
2023-04-10T16:24:17.520Z,2.20
2023-04-10T16:25:49.210Z,2.10
2023-04-10T16:27:20.856Z,2.00
2023-04-10T16:28:53.829Z,1.90
2023-04-10T16:30:25.796Z,2.17
2023-04-10T16:31:57.545Z,1.93
2023-04-10T16:33:30.611Z,2.00
2023-04-10T16:35:02.284Z,1.97
2023-04-10T16:36:33.970Z,1.83
2023-04-10T16:38:05.631Z,1.87
2023-04-10T16:40:09.087Z,2.37
2023-04-10T16:41:40.816Z,2.30
2023-04-10T16:43:12.650Z,2.10
2023-04-10T16:44:44.338Z,2.67
2023-04-10T16:46:16.207Z,1.93
2023-04-10T16:47:48.082Z,2.30
2023-04-10T16:49:22.238Z,2.30
2023-04-10T16:50:53.914Z,2.50
2023-04-10T16:52:25.659Z,4.07
2023-04-10T16:53:57.477Z,4.30
2023-04-10T16:55:29.196Z,6.20
2023-04-10T16:57:01.423Z,4.80
2023-04-10T16:58:34.206Z,4.50
2023-04-10T17:00:06.728Z,3.80
2023-04-10T17:01:39.700Z,2.83
2023-04-10T17:03:11.497Z,2.50
2023-04-10T17:04:43.193Z,2.30
2023-04-10T17:06:15.833Z,2.40
2023-04-10T17:07:48.054Z,2.47
2023-04-10T17:09:20.159Z,2.20
2023-04-10T17:10:51.874Z,2.43
2023-04-10T17:12:23.640Z,2.60
2023-04-10T17:13:55.370Z,2.63
2023-04-10T17:15:27.027Z,2.70
2023-04-10T17:16:58.746Z,2.20
2023-04-10T17:18:30.525Z,2.30
2023-04-10T17:20:02.277Z,2.10
2023-04-10T17:21:34.131Z,2.30
2023-04-10T17:23:05.818Z,2.20
2023-04-10T17:24:37.502Z,2.27
2023-04-10T17:26:14.151Z,1.90
2023-04-10T17:27:45.998Z,1.93
2023-04-10T17:29:17.670Z,2.00
2023-04-10T17:30:49.380Z,2.20
2023-04-10T17:32:21.106Z,2.20
2023-04-10T17:33:52.793Z,2.00
2023-04-10T17:35:25.329Z,2.50
2023-04-10T17:36:57.111Z,3.47
2023-04-10T17:38:28.838Z,6.23
2023-04-10T17:40:01.485Z,6.07
2023-04-10T17:41:33.157Z,4.90
2023-04-10T17:43:04.816Z,4.50
2023-04-10T17:44:36.458Z,4.80
2023-04-10T17:46:12.169Z,5.13
2023-04-10T17:47:44.257Z,3.60
2023-04-10T17:49:16.057Z,3.13
2023-04-10T17:50:49.185Z,5.07
2023-04-10T17:52:21.499Z,4.30
2023-04-10T17:53:54.863Z,4.17
2023-04-10T17:55:26.722Z,4.20
2023-04-10T17:56:58.376Z,3.93
2023-04-10T17:58:30.945Z,6.63
2023-04-10T18:00:07.715Z,6.10
2023-04-10T18:01:39.738Z,6.13
2023-04-10T18:03:12.110Z,5.80
2023-04-10T18:04:43.849Z,5.80
2023-04-10T18:06:15.782Z,5.27
2023-04-10T18:07:47.516Z,4.67
2023-04-10T18:09:19.272Z,4.27
2023-04-10T18:10:50.965Z,4.33
2023-04-10T18:12:22.727Z,4.07
2023-04-10T18:13:54.512Z,3.60
2023-04-10T18:15:26.736Z,3.70
2023-04-10T18:16:58.469Z,3.20
2023-04-10T18:18:30.216Z,3.50
2023-04-10T18:20:01.899Z,3.37
2023-04-10T18:21:34.761Z,3.40
2023-04-10T18:23:06.553Z,2.83
2023-04-10T18:24:38.391Z,3.07
2023-04-10T18:26:11.029Z,3.23
2023-04-10T18:27:51.412Z,4.20
2023-04-10T18:29:29.952Z,6.97
2023-04-10T18:31:01.683Z,9.50
2023-04-10T18:32:33.401Z,10.70
2023-04-10T18:34:08.176Z,7.03
2023-04-10T18:35:40.404Z,5.60
2023-04-10T18:37:12.057Z,5.57
2023-04-10T18:38:44.011Z,5.20
2023-04-10T18:40:16.760Z,4.70
2023-04-10T18:41:48.764Z,4.33
2023-04-10T18:43:20.410Z,4.00
2023-04-10T18:44:52.238Z,3.40
2023-04-10T18:46:27.832Z,4.17
2023-04-10T18:47:59.958Z,3.17
2023-04-10T18:49:31.845Z,3.30
2023-04-10T18:51:03.639Z,3.40
2023-04-10T18:52:35.320Z,2.90
2023-04-10T18:54:07.050Z,4.83
2023-04-10T18:55:38.717Z,7.13
2023-04-10T18:57:10.529Z,12.90
2023-04-10T18:58:42.299Z,13.63
2023-04-10T19:00:14.286Z,16.17
2023-04-10T19:01:46.165Z,11.00
2023-04-10T19:03:18.321Z,12.50
2023-04-10T19:04:50.183Z,12.50
2023-04-10T19:06:25.903Z,14.33
2023-04-10T19:08:04.363Z,16.90
2023-04-10T19:09:36.740Z,14.17
2023-04-10T19:11:14.546Z,13.87
2023-04-10T19:12:49.239Z,13.70
2023-04-10T19:14:21.107Z,11.87
2023-04-10T19:15:52.948Z,13.00
2023-04-10T19:17:24.827Z,10.50
2023-04-10T19:18:56.857Z,11.90
2023-04-10T19:20:49.082Z,10.60
2023-04-10T19:22:20.396Z,9.50
2023-04-10T19:23:52.312Z,9.50
2023-04-10T19:25:24.009Z,8.93
2023-04-10T19:26:56.490Z,10.27
2023-04-10T19:28:29.407Z,8.50
2023-04-10T19:30:01.865Z,9.07
2023-04-10T19:31:33.782Z,10.93
2023-04-10T19:33:05.852Z,9.23
2023-04-10T19:34:37.693Z,6.00
2023-04-10T19:36:10.649Z,6.37
2023-04-10T19:37:43.302Z,6.33
2023-04-10T19:39:15.163Z,5.23
2023-04-10T19:40:47.356Z,5.07
2023-04-10T19:42:19.151Z,4.67
2023-04-10T19:43:52.480Z,5.03
2023-04-10T19:45:27.187Z,4.73
2023-04-10T19:46:58.910Z,4.37
2023-04-10T19:48:30.691Z,4.20
2023-04-10T19:50:03.693Z,3.80
2023-04-10T19:51:35.477Z,3.60
2023-04-10T19:53:07.233Z,3.43
2023-04-10T19:54:38.930Z,3.50
2023-04-10T19:56:10.784Z,2.80
2023-04-10T19:57:42.530Z,2.87
2023-04-10T19:59:14.261Z,4.53
2023-04-10T20:00:46.201Z,9.67
2023-04-10T20:02:18.256Z,5.50
2023-04-10T20:03:50.388Z,4.70
2023-04-10T20:05:22.234Z,5.63
2023-04-10T20:06:53.983Z,7.20
2023-04-10T20:08:25.738Z,6.73
2023-04-10T20:09:58.693Z,9.10
2023-04-10T20:11:30.649Z,10.73
2023-04-10T20:13:02.379Z,10.10
2023-04-10T20:14:34.306Z,22.80
2023-04-10T20:16:07.451Z,18.10
2023-04-10T20:17:41.081Z,20.10
2023-04-10T20:19:14.674Z,17.43
2023-04-10T20:20:46.574Z,18.73
2023-04-10T20:22:18.232Z,18.07
2023-04-10T20:23:49.933Z,12.10
2023-04-10T20:25:21.612Z,10.70
2023-04-10T20:26:53.344Z,10.50
2023-04-10T20:28:25.436Z,9.70
2023-04-10T20:29:58.282Z,7.57
2023-04-10T20:31:30.894Z,7.27
2023-04-10T20:33:04.808Z,6.33
2023-04-10T20:34:36.955Z,5.80
2023-04-10T20:36:09.047Z,6.23
2023-04-10T20:37:40.876Z,4.43
2023-04-10T20:39:12.569Z,4.57
2023-04-10T20:40:44.460Z,3.87
2023-04-10T20:42:18.321Z,3.77
2023-04-10T20:43:50.523Z,3.60
2023-04-10T20:45:23.875Z,4.07
2023-04-10T20:46:59.115Z,4.73
2023-04-10T20:48:31.802Z,4.03
2023-04-10T20:50:12.999Z,3.83
2023-04-10T20:51:49.492Z,3.20
2023-04-10T20:53:25.058Z,2.73
2023-04-10T20:54:59.035Z,3.00
2023-04-10T20:56:42.813Z,2.50
2023-04-10T20:58:18.815Z,2.43
2023-04-10T20:59:54.385Z,2.30
2023-04-10T21:01:33.270Z,1.93
2023-04-10T21:03:07.067Z,46.80
2023-04-10T21:04:42.641Z,11.73
2023-04-10T21:06:21.070Z,7.03
2023-04-10T21:07:54.292Z,6.67
2023-04-10T21:09:26.159Z,6.83
2023-04-10T21:11:01.150Z,5.60
2023-04-10T21:12:35.706Z,5.30
2023-04-10T21:14:08.500Z,4.50
2023-04-10T21:15:41.710Z,4.53
2023-04-10T21:17:14.976Z,5.00
2023-04-10T21:18:47.768Z,4.10
2023-04-10T21:20:24.740Z,3.70
2023-04-10T21:22:00.573Z,3.50
2023-04-10T21:23:33.037Z,3.37
2023-04-10T21:25:11.302Z,2.80
2023-04-10T21:26:43.391Z,2.93
2023-04-10T21:28:15.721Z,2.70
2023-04-10T21:29:47.956Z,2.40
2023-04-10T21:31:20.077Z,2.20
2023-04-10T21:32:55.052Z,2.13
2023-04-10T21:34:30.661Z,2.00
2023-04-10T21:36:03.004Z,1.93
2023-04-10T21:37:34.936Z,1.90
2023-04-10T21:39:09.527Z,2.30
2023-04-10T21:40:41.239Z,1.80
2023-04-10T21:42:13.269Z,2.30
2023-04-10T21:43:44.917Z,3.20
2023-04-10T21:45:16.977Z,2.40